Decoded Metar for EPLB ( in ) (IATA:) | Meteo·Mobile Aviation Weather
aviador You're here:

EPLB Decoded Metar

in
Report Time2019-02-16 06:30:00
UTC Time2019-02-16 06:59:07
Flight Rules lifr LIFR
Wind270° at 05 kt
W.Rank270° ranks 3
Current wind is below 270° avg. (8.7)
Visibility0500 m
Phenomena:Fog
Clouds:Overcast 002 Hf
Ceiling200 ft
Temp02°C
Dew Point02°C (100% RH)
AAT-1.5°C
QNH1029 hPa
Raw Report
EPLB 160630Z 27005KT 0500 R25/1000 FG OVC002 02/02 Q1029=

Extra information for EPLB:More info

Social comments